Latest Weather Observations for Marrangaroo (Defence)

IDN60801

Issued at 10:23 am EST Tuesday 26 May 2020 (issued every 10 minutes, with the page automatically refreshed every 10 minutes)

About weather observations | Map of weather stations | Latest weather observations for NSW | Other Formats
Station Details ID: 063308 Name: MARRANGAROO (DEFENCE) Lat: -33.43 Lon: 150.13 Height: 955.0 m
Data from the previous 72 hours. | See also: Recent months at Marrangaroo (Defence)
Date/Time
EST
Temp
°C
App
Temp
°C
Dew
Point
°C
Rel
Hum
%
Delta-T
°C
Wind Press
QNH
hPa
Press
MSL
hPa
Rain since
9am
mm
Dir  Spd
km/h
Gust
km/h
Spd
kts
Gust
kts
26/10:00am 9.7 8.7 8.9 95 0.4 SSW 4 7 2 4 - - 0.2
26/09:30am 9.4 8.3 8.5 94 0.5 SSE 4 9 2 5 - - 0.0
26/09:00am 8.9 7.3 8.0 94 0.5 SSE 6 13 3 7 - - 2.0
26/08:30am 8.7 6.9 7.8 94 0.5 SSE 7 13 4 7 - - 1.8
26/08:00am 8.7 6.9 7.9 95 0.4 SSE 7 17 4 9 - - 1.8
26/07:30am 8.5 6.6 7.7 95 0.4 S 7 13 4 7 - - 1.8
26/07:00am 8.3 6.6 7.5 95 0.4 SSE 6 9 3 5 - - 1.6
26/06:30am 8.2 5.9 7.4 95 0.4 SSE 9 15 5 8 - - 1.4
26/06:00am 8.2 5.1 7.3 94 0.4 SSE 13 20 7 11 - - 1.4
26/05:30am 8.1 5.4 7.3 95 0.4 SE 11 19 6 10 - - 1.4
26/05:00am 7.8 5.8 7.1 95 0.3 SSE 7 15 4 8 - - 1.2
26/04:30am 7.8 5.0 7.1 95 0.3 SSE 11 20 6 11 - - 1.2
26/04:00am 7.7 5.6 6.8 94 0.4 SSE 7 13 4 7 - - 1.0
26/03:30am 7.7 5.8 6.8 94 0.4 SSE 6 13 3 7 - - 1.0
26/03:00am 7.7 5.3 6.8 94 0.4 SSE 9 19 5 10 - - 1.0
26/02:30am 7.8 5.0 6.9 94 0.4 SSE 11 20 6 11 - - 1.0
26/02:00am 7.7 5.3 6.8 94 0.4 SSE 9 28 5 15 - - 0.8
26/01:30am 7.7 4.9 6.8 94 0.4 SSE 11 17 6 9 - - 0.6
26/01:00am 7.7 5.3 6.8 94 0.4 S 9 19 5 10 - - 0.6
26/12:30am 7.8 5.3 6.7 93 0.5 SSE 9 17 5 9 - - 0.6
26/12:00am 7.9 4.7 6.7 92 0.6 SSE 13 20 7 11 - - 0.4
 
Date/Time
EST
Temp
°C
App
Temp
°C
Dew
Point
°C
Rel
Hum
%
Delta-T
°C
Wind Press
QNH
hPa
Press
MSL
hPa
Rain since
9am
mm
Dir  Spd
km/h
Gust
km/h
Spd
kts
Gust
kts
25/11:30pm 8.1 4.5 6.7 91 0.7 SSE 15 32 8 17 - - 0.4
25/11:00pm 8.1 5.3 6.9 92 0.6 SSE 11 24 6 13 - - 0.4
25/10:30pm 8.2 5.7 6.7 90 0.7 SSE 9 32 5 17 - - 0.4
25/10:00pm 8.3 5.5 6.8 90 0.7 S 11 20 6 11 - - 0.4
25/09:30pm 8.4 5.6 6.9 90 0.7 SSE 11 22 6 12 - - 0.4
25/09:00pm 8.2 6.3 6.8 91 0.7 SSE 6 17 3 9 - - 0.2
25/08:30pm 8.7 5.8 6.5 86 1.1 SSE 11 20 6 11 - - 0.2
25/08:00pm 8.6 6.1 6.6 87 1.0 SSE 9 19 5 10 - - 0.2
25/07:30pm 8.6 6.1 6.7 88 0.9 SSE 9 22 5 12 - - 0.2
25/07:00pm 8.5 5.3 6.8 89 0.8 SE 13 22 7 12 - - 0.2
25/06:30pm 8.6 5.4 6.7 88 0.9 SSE 13 20 7 11 - - 0.2
25/06:00pm 8.7 5.1 6.7 87 1.0 SSE 15 28 8 15 - - 0.2
25/05:30pm 8.6 5.4 6.9 89 0.8 SSE 13 24 7 13 - - 0.2
25/05:00pm 8.9 6.4 6.7 86 1.1 S 9 15 5 8 - - 0.2
25/04:30pm 9.5 7.0 6.4 81 1.5 SSE 9 19 5 10 - - 0.2
25/04:00pm 9.6 6.3 6.3 80 1.6 SSE 13 22 7 12 - - 0.2
25/03:30pm 9.7 5.2 6.2 79 1.7 SSE 19 30 10 16 - - 0.2
25/03:00pm 10.2 7.3 6.4 77 1.9 SSE 11 20 6 11 - - 0.2
25/02:30pm 9.8 6.5 6.2 78 1.8 SSE 13 24 7 13 - - 0.2
25/02:00pm 9.7 6.7 6.1 78 1.8 S 11 19 6 10 - - 0.2
25/01:30pm 10.1 6.8 6.3 77 1.9 SSE 13 30 7 16 - - 0.2
25/01:00pm 10.0 6.3 6.2 77 1.9 SSE 15 28 8 15 - - 0.2
25/12:30pm 10.3 7.8 6.5 77 1.9 S 9 20 5 11 - - 0.2
25/12:00pm 9.8 6.5 6.3 79 1.7 S 13 30 7 16 - - 0.2
25/11:30am 9.2 5.8 5.9 80 1.6 S 13 26 7 14 - - 0.2
25/11:00am 8.6 5.7 6.4 86 1.1 S 11 20 6 11 - - 0.2
25/10:30am 7.8 5.2 5.9 88 0.9 SSE 9 17 5 9 - - 0.2
25/10:00am 7.8 5.1 5.6 86 1.0 SSE 9 17 5 9 - - 0.0
25/09:30am 7.6 4.5 5.4 86 1.0 SSE 11 19 6 10 - - 0.0
25/09:00am 7.3 4.1 5.3 87 0.9 SSE 11 20 6 11 - - 0.0
25/08:30am 6.9 3.7 5.1 88 0.8 SSE 11 20 6 11 - - 0.0
25/08:00am 6.7 3.4 4.7 87 0.9 SSE 11 24 6 13 - - 0.0
25/07:30am 6.6 2.8 3.9 83 1.2 SSE 13 28 7 15 - - 0.0
25/07:00am 6.3 2.8 3.6 83 1.2 SSE 11 24 6 13 - - 0.0
25/06:30am 6.0 2.8 3.2 82 1.2 SSE 9 24 5 13 - - 0.0
25/06:00am 5.8 3.0 3.1 83 1.2 SE 7 13 4 7 - - 0.0
25/05:30am 5.7 2.5 2.9 82 1.2 SSE 9 17 5 9 - - 0.0
25/05:00am 5.7 2.8 2.7 81 1.3 SSE 7 11 4 6 - - 0.0
25/04:30am 6.1 2.5 2.9 80 1.4 SSE 11 22 6 12 - - 0.0
25/04:00am 6.3 1.9 2.9 79 1.5 SSE 15 28 8 15 - - 0.0
25/03:30am 6.5 2.5 3.1 79 1.5 SSE 13 30 7 16 - - 0.0
25/03:00am 6.5 2.5 2.9 78 1.6 SSE 13 26 7 14 - - 0.0
25/02:30am 6.2 1.8 2.7 78 1.5 SSE 15 24 8 13 - - 0.0
25/02:00am 6.3 2.3 2.8 78 1.5 SSE 13 24 7 13 - - 0.0
25/01:30am 6.2 2.1 2.5 77 1.6 SSE 13 28 7 15 - - 0.0
25/01:00am 5.5 2.6 2.5 81 1.3 SSE 7 17 4 9 - - 0.0
25/12:30am 3.0 0.7 0.6 84 1.0 SSE 2 6 1 3 - - 0.0
25/12:00am 5.3 2.8 1.8 78 1.5 SSE 4 11 2 6 - - 0.0
 
Date/Time
EST
Temp
°C
App
Temp
°C
Dew
Point
°C
Rel
Hum
%
Delta-T
°C
Wind Press
QNH
hPa
Press
MSL
hPa
Rain since
9am
mm
Dir  Spd
km/h
Gust
km/h
Spd
kts
Gust
kts
24/11:30pm 5.6 2.7 2.8 82 1.2 SSE 7 17 4 9 - - 0.0
24/11:00pm 2.9 0.9 2.2 95 0.3 SW 2 7 1 4 - - 0.0
24/10:30pm 1.9 0.1 1.2 95 0.3 CALM 0 4 0 2 - - 0.0
24/10:00pm 1.9 0.1 1.2 95 0.3 CALM 0 2 0 1 - - 0.0
24/09:30pm 2.2 0.4 1.3 94 0.4 CALM 0 0 0 0 - - 0.0
24/09:00pm 2.8 1.1 1.6 92 0.5 CALM 0 0 0 0 - - 0.0
24/08:30pm 3.6 1.9 2.1 90 0.6 CALM 0 0 0 0 - - 0.0
24/08:00pm 4.5 3.0 3.0 90 0.7 CALM 0 0 0 0 - - 0.0
24/07:30pm 4.8 3.4 3.3 90 0.7 CALM 0 0 0 0 - - 0.0
24/07:00pm 5.0 3.6 3.3 89 0.7 CALM 0 0 0 0 - - 0.0
24/06:30pm 5.3 3.9 3.3 87 0.9 CALM 0 0 0 0 - - 0.0
24/06:00pm 6.3 4.9 3.6 83 1.2 CALM 0 0 0 0 - - 0.0
24/05:30pm 8.0 6.2 3.5 73 2.0 SW 2 4 1 2 - - 0.0
24/05:00pm 8.9 6.8 3.7 70 2.4 SSW 4 6 2 3 - - 0.0
24/04:30pm 9.7 7.6 4.1 68 2.6 SW 4 7 2 4 - - 0.0
24/04:00pm 10.2 7.4 3.3 62 3.2 S 7 13 4 7 - - 0.0
24/03:30pm 11.0 8.0 4.0 62 3.3 S 9 19 5 10 - - 0.0
24/03:00pm 10.8 6.9 3.6 61 3.4 SSE 13 32 7 17 - - 0.0
24/02:30pm 10.1 5.9 4.0 66 2.9 SSE 15 26 8 14 - - 0.0
24/02:00pm 10.9 6.8 4.4 64 3.1 SSE 15 26 8 14 - - 0.0
24/01:30pm 11.2 7.2 5.1 66 2.9 SSE 15 26 8 14 - - 0.0
24/01:00pm 10.6 6.2 4.7 67 2.8 SSE 17 37 9 20 - - 0.0
24/12:30pm 10.5 6.3 5.5 71 2.4 SSE 17 30 9 16 - - 0.0
24/12:00pm 10.6 5.8 4.9 68 2.7 SSE 19 32 10 17 - - 0.0
24/11:30am 10.4 6.8 4.8 68 2.7 S 13 24 7 13 - - 0.0
24/11:00am 10.5 6.3 5.9 73 2.2 S 17 30 9 16 - - 0.0
24/10:30am 9.9 6.4 5.5 74 2.1 SSE 13 26 7 14 - - 0.0
24/10:00am 9.8 6.3 5.6 75 2.0 S 13 24 7 13 - - 0.0
24/09:30am 9.4 6.2 5.2 75 2.0 S 11 20 6 11 - - 0.0
24/09:00am 8.8 5.1 4.2 73 2.1 S 13 26 7 14 - - 2.8
24/08:30am 8.5 5.5 4.1 74 2.0 SSE 9 19 5 10 - - 2.8
24/08:00am 7.5 5.2 4.8 83 1.3 SSE 6 13 3 7 - - 2.8
24/07:30am 5.7 3.5 5.1 96 0.3 SSE 6 11 3 6 - - 2.8
24/07:00am 4.7 3.0 4.0 95 0.3 SSE 2 6 1 3 - - 2.8
24/06:30am 5.0 3.4 4.3 95 0.3 SSE 2 4 1 2 - - 2.8
24/06:00am 5.4 4.2 4.7 95 0.3 CALM 0 0 0 0 - - 2.8
24/05:30am 5.0 3.8 4.4 96 0.3 CALM 0 4 0 2 - - 2.8
24/05:00am 4.9 3.6 4.0 94 0.4 CALM 0 0 0 0 - - 2.8
24/04:30am 5.5 4.3 4.6 94 0.4 CALM 0 0 0 0 - - 2.8
24/04:00am 6.2 5.1 5.3 94 0.4 CALM 0 0 0 0 - - 2.8
24/03:30am 6.5 5.4 5.3 92 0.6 CALM 0 0 0 0 - - 2.8
24/03:00am 6.6 5.6 5.4 92 0.6 CALM 0 4 0 2 - - 2.8
24/02:30am 6.4 5.4 5.4 93 0.5 CALM 0 2 0 1 - - 2.8
24/02:00am 6.3 5.3 5.4 94 0.4 CALM 0 4 0 2 - - 2.6
24/01:30am 6.3 4.5 5.3 93 0.5 SSW 4 6 2 3 - - 2.6
24/01:00am 6.3 4.5 5.4 94 0.4 SW 4 9 2 5 - - 2.6
24/12:30am 6.3 4.1 5.4 94 0.4 SW 6 9 3 5 - - 2.6
24/12:00am 6.3 4.1 5.4 94 0.4 WSW 6 11 3 6 - - 2.4
 
Date/Time
EST
Temp
°C
App
Temp
°C
Dew
Point
°C
Rel
Hum
%
Delta-T
°C
Wind Press
QNH
hPa
Press
MSL
hPa
Rain since
9am
mm
Dir  Spd
km/h
Gust
km/h
Spd
kts
Gust
kts
23/11:30pm 6.4 4.0 5.4 93 0.5 SW 7 15 4 8 - - 2.2
23/11:00pm 6.5 4.2 5.5 93 0.5 SW 7 15 4 8 - - 2.2
23/10:30pm 6.5 4.2 5.6 94 0.4 SW 7 15 4 8 - - 2.2
23/10:00pm 6.5 3.8 5.6 94 0.4 SW 9 19 5 10 - - 2.0
23/09:30pm 6.6 3.9 5.6 93 0.5 SW 9 22 5 12 - - 2.0
23/09:00pm 6.4 3.7 5.4 93 0.5 SW 9 17 5 9 - - 2.0
23/08:30pm 6.4 4.2 5.2 92 0.6 SW 6 13 3 7 - - 2.0
23/08:00pm 6.2 4.0 5.2 93 0.5 SW 6 17 3 9 - - 2.0
23/07:30pm 6.1 3.9 5.1 93 0.5 WSW 6 11 3 6 - - 2.0
23/07:00pm 6.1 3.6 4.9 92 0.6 SW 7 17 4 9 - - 2.0
23/06:30pm 6.2 3.4 5.0 92 0.6 SW 9 17 5 9 - - 2.0
23/06:00pm 6.3 3.5 5.3 93 0.5 SW 9 17 5 9 - - 2.0
23/05:30pm 6.5 3.7 5.3 92 0.6 SW 9 17 5 9 - - 1.8
23/05:00pm 6.6 4.2 5.4 92 0.6 SW 7 15 4 8 - - 1.6
23/04:30pm 6.8 4.1 5.6 92 0.6 SW 9 17 5 9 - - 1.6
23/04:00pm 6.8 4.5 5.7 93 0.5 SW 7 15 4 8 - - 1.6
23/03:30pm 7.0 4.7 5.8 92 0.6 SW 7 17 4 9 - - 1.4
23/03:00pm 7.2 4.9 5.8 91 0.7 SW 7 19 4 10 - - 1.0
23/02:30pm 7.3 5.0 5.6 89 0.8 WSW 7 15 4 8 - - 0.4
23/02:00pm 7.9 4.7 5.0 82 1.4 WSW 11 19 6 10 - - 0.0
23/01:30pm 8.0 5.1 4.8 80 1.5 WSW 9 19 5 10 - - 0.0
23/01:00pm 8.2 5.8 5.1 81 1.5 WSW 7 17 4 9 - - 0.0
23/12:30pm 8.1 5.2 4.7 79 1.6 WSW 9 15 5 8 - - 0.0
23/12:00pm 7.7 4.8 4.8 82 1.4 SW 9 17 5 9 - - 0.0
23/11:30am 7.6 4.7 4.7 82 1.3 WSW 9 20 5 11 - - 0.0
23/11:00am 7.4 4.1 4.4 81 1.4 SW 11 26 6 14 - - 0.0
23/10:30am 7.0 3.3 4.7 85 1.1 SW 13 24 7 13 - - 0.0

Other formats

Comma delimited format used in spreadsheet applications
http://www.bom.gov.au/fwo/IDN60801/IDN60801.95686.axf

JavaScript Object Notation format (JSON) in row-major order
http://www.bom.gov.au/fwo/IDN60801/IDN60801.95686.json

Data quality

Most of these data are generated automatically and are frequently updated. Quality checks on data are not normally performed. It is possible for incorrect values to appear. Refer to information at About Latest Weather Observations and please check the disclaimer before using these data.